sensor_id;sensor_type;location;lat;lon;timestamp;pressure;altitude;pressure_sealevel;temperature
37536;BMP180;23379;51.554;6.736;2022-09-09T00:06:32;100309.00;;;15.90
37536;BMP180;23379;51.554;6.736;2022-09-09T00:09:18;100298.00;;;15.90
37536;BMP180;23379;51.554;6.736;2022-09-09T00:12:14;100316.00;;;15.90
37536;BMP180;23379;51.554;6.736;2022-09-09T00:14:50;100304.00;;;15.80
37536;BMP180;23379;51.554;6.736;2022-09-09T00:20:40;100311.00;;;16.00
37536;BMP180;23379;51.554;6.736;2022-09-09T00:23:30;100313.00;;;15.60
37536;BMP180;23379;51.554;6.736;2022-09-09T00:25:58;100310.00;;;15.60
37536;BMP180;23379;51.554;6.736;2022-09-09T00:28:27;100308.00;;;15.50
37536;BMP180;23379;51.554;6.736;2022-09-09T00:30:53;100293.00;;;15.40
37536;BMP180;23379;51.554;6.736;2022-09-09T00:33:23;100301.00;;;15.30
37536;BMP180;23379;51.554;6.736;2022-09-09T00:35:56;100289.00;;;15.20
37536;BMP180;23379;51.554;6.736;2022-09-09T00:38:31;100309.00;;;15.10
37536;BMP180;23379;51.554;6.736;2022-09-09T00:41:14;100307.00;;;15.00
37536;BMP180;23379;51.554;6.736;2022-09-09T00:43:49;100317.00;;;14.90
37536;BMP180;23379;51.554;6.736;2022-09-09T00:46:27;100304.00;;;15.20
37536;BMP180;23379;51.554;6.736;2022-09-09T00:49:11;100311.00;;;15.30
37536;BMP180;23379;51.554;6.736;2022-09-09T00:56:39;100303.00;;;15.10
37536;BMP180;23379;51.554;6.736;2022-09-09T01:01:35;100287.00;;;15.40
37536;BMP180;23379;51.554;6.736;2022-09-09T01:04:04;100302.00;;;15.60
37536;BMP180;23379;51.554;6.736;2022-09-09T01:06:36;100283.00;;;15.60
37536;BMP180;23379;51.554;6.736;2022-09-09T01:12:14;100309.00;;;15.40
37536;BMP180;23379;51.554;6.736;2022-09-09T01:14:44;100308.00;;;15.40
37536;BMP180;23379;51.554;6.736;2022-09-09T01:17:27;100288.00;;;15.30
37536;BMP180;23379;51.554;6.736;2022-09-09T01:28:31;100274.00;;;15.30
37536;BMP180;23379;51.554;6.736;2022-09-09T01:30:58;100284.00;;;15.30
37536;BMP180;23379;51.554;6.736;2022-09-09T01:33:24;100258.00;;;15.60
37536;BMP180;23379;51.554;6.736;2022-09-09T01:35:56;100289.00;;;15.40
37536;BMP180;23379;51.554;6.736;2022-09-09T01:38:23;100273.00;;;15.60
37536;BMP180;23379;51.554;6.736;2022-09-09T01:40:50;100262.00;;;15.60
37536;BMP180;23379;51.554;6.736;2022-09-09T01:43:19;100264.00;;;15.40
37536;BMP180;23379;51.554;6.736;2022-09-09T01:45:45;100275.00;;;15.50
37536;BMP180;23379;51.554;6.736;2022-09-09T01:48:11;100278.00;;;15.40
37536;BMP180;23379;51.554;6.736;2022-09-09T01:50:37;100277.00;;;15.20
37536;BMP180;23379;51.554;6.736;2022-09-09T01:53:02;100269.00;;;15.30
37536;BMP180;23379;51.554;6.736;2022-09-09T01:55:37;100274.00;;;15.50
37536;BMP180;23379;51.554;6.736;2022-09-09T01:58:34;100291.00;;;15.50
37536;BMP180;23379;51.554;6.736;2022-09-09T02:03:58;100267.00;;;15.60
37536;BMP180;23379;51.554;6.736;2022-09-09T02:06:34;100274.00;;;15.70
37536;BMP180;23379;51.554;6.736;2022-09-09T02:09:03;100283.00;;;15.60
37536;BMP180;23379;51.554;6.736;2022-09-09T02:11:30;100286.00;;;15.60
37536;BMP180;23379;51.554;6.736;2022-09-09T02:14:00;100267.00;;;15.70
37536;BMP180;23379;51.554;6.736;2022-09-09T02:16:40;100282.00;;;15.40
37536;BMP180;23379;51.554;6.736;2022-09-09T02:21:43;100262.00;;;15.60
37536;BMP180;23379;51.554;6.736;2022-09-09T02:24:12;100285.00;;;15.60
37536;BMP180;23379;51.554;6.736;2022-09-09T02:26:40;100296.00;;;15.40
37536;BMP180;23379;51.554;6.736;2022-09-09T02:29:20;100271.00;;;15.40
37536;BMP180;23379;51.554;6.736;2022-09-09T02:31:47;100260.00;;;15.60
37536;BMP180;23379;51.554;6.736;2022-09-09T02:34:17;100290.00;;;15.90
37536;BMP180;23379;51.554;6.736;2022-09-09T02:36:45;100231.00;;;15.70
37536;BMP180;23379;51.554;6.736;2022-09-09T02:39:11;100255.00;;;16.00
37536;BMP180;23379;51.554;6.736;2022-09-09T02:41:38;100290.00;;;15.90
37536;BMP180;23379;51.554;6.736;2022-09-09T02:44:12;100282.00;;;15.80
37536;BMP180;23379;51.554;6.736;2022-09-09T02:49:10;100260.00;;;15.90
37536;BMP180;23379;51.554;6.736;2022-09-09T02:52:03;100292.00;;;15.90
37536;BMP180;23379;51.554;6.736;2022-09-09T02:54:35;100267.00;;;16.10
37536;BMP180;23379;51.554;6.736;2022-09-09T02:57:17;100293.00;;;15.70
37536;BMP180;23379;51.554;6.736;2022-09-09T02:59:44;100275.00;;;15.80
37536;BMP180;23379;51.554;6.736;2022-09-09T03:02:10;100259.00;;;16.10
37536;BMP180;23379;51.554;6.736;2022-09-09T03:04:38;100285.00;;;15.80
37536;BMP180;23379;51.554;6.736;2022-09-09T03:07:04;100262.00;;;16.00
37536;BMP180;23379;51.554;6.736;2022-09-09T03:09:30;100272.00;;;15.50
37536;BMP180;23379;51.554;6.736;2022-09-09T03:11:55;100273.00;;;15.70
37536;BMP180;23379;51.554;6.736;2022-09-09T03:14:21;100284.00;;;15.70
37536;BMP180;23379;51.554;6.736;2022-09-09T03:16:50;100264.00;;;15.70
37536;BMP180;23379;51.554;6.736;2022-09-09T03:19:15;100245.00;;;15.80
37536;BMP180;23379;51.554;6.736;2022-09-09T03:21:41;100267.00;;;15.70
37536;BMP180;23379;51.554;6.736;2022-09-09T03:24:06;100263.00;;;15.70
37536;BMP180;23379;51.554;6.736;2022-09-09T03:26:32;100275.00;;;16.00
37536;BMP180;23379;51.554;6.736;2022-09-09T03:28:57;100251.00;;;15.80
37536;BMP180;23379;51.554;6.736;2022-09-09T03:31:25;100242.00;;;15.90
37536;BMP180;23379;51.554;6.736;2022-09-09T03:33:51;100215.00;;;15.90
37536;BMP180;23379;51.554;6.736;2022-09-09T03:36:16;100243.00;;;16.00
37536;BMP180;23379;51.554;6.736;2022-09-09T03:38:41;100257.00;;;15.90
37536;BMP180;23379;51.554;6.736;2022-09-09T03:41:07;100237.00;;;15.90
37536;BMP180;23379;51.554;6.736;2022-09-09T03:43:33;100248.00;;;15.80
37536;BMP180;23379;51.554;6.736;2022-09-09T03:45:58;100269.00;;;15.90
37536;BMP180;23379;51.554;6.736;2022-09-09T03:48:24;100241.00;;;15.90
37536;BMP180;23379;51.554;6.736;2022-09-09T03:50:53;100281.00;;;15.90
37536;BMP180;23379;51.554;6.736;2022-09-09T03:53:22;100278.00;;;15.90
37536;BMP180;23379;51.554;6.736;2022-09-09T03:55:50;100269.00;;;15.80
37536;BMP180;23379;51.554;6.736;2022-09-09T03:58:18;100208.00;;;15.80
37536;BMP180;23379;51.554;6.736;2022-09-09T04:01:03;100274.00;;;15.90
37536;BMP180;23379;51.554;6.736;2022-09-09T04:03:29;100268.00;;;15.90
37536;BMP180;23379;51.554;6.736;2022-09-09T04:05:56;100260.00;;;15.90
37536;BMP180;23379;51.554;6.736;2022-09-09T04:08:22;100276.00;;;16.00
37536;BMP180;23379;51.554;6.736;2022-09-09T04:10:51;100272.00;;;16.10
37536;BMP180;23379;51.554;6.736;2022-09-09T04:13:17;100254.00;;;15.80
37536;BMP180;23379;51.554;6.736;2022-09-09T04:15:44;100247.00;;;16.30
37536;BMP180;23379;51.554;6.736;2022-09-09T04:18:10;100236.00;;;16.30
37536;BMP180;23379;51.554;6.736;2022-09-09T04:20:37;100220.00;;;16.30
37536;BMP180;23379;51.554;6.736;2022-09-09T04:23:02;100267.00;;;16.00
37536;BMP180;23379;51.554;6.736;2022-09-09T04:25:28;100278.00;;;16.30
37536;BMP180;23379;51.554;6.736;2022-09-09T04:27:55;100239.00;;;16.30
37536;BMP180;23379;51.554;6.736;2022-09-09T04:30:21;100245.00;;;16.30
37536;BMP180;23379;51.554;6.736;2022-09-09T04:32:46;100222.00;;;16.30
37536;BMP180;23379;51.554;6.736;2022-09-09T04:35:12;100214.00;;;16.20
37536;BMP180;23379;51.554;6.736;2022-09-09T04:37:37;100211.00;;;16.20
37536;BMP180;23379;51.554;6.736;2022-09-09T04:40:02;100258.00;;;16.10
37536;BMP180;23379;51.554;6.736;2022-09-09T04:42:28;100251.00;;;16.30
37536;BMP180;23379;51.554;6.736;2022-09-09T04:44:53;100263.00;;;16.50
37536;BMP180;23379;51.554;6.736;2022-09-09T04:47:19;100253.00;;;16.40
37536;BMP180;23379;51.554;6.736;2022-09-09T04:49:45;100273.00;;;16.40
37536;BMP180;23379;51.554;6.736;2022-09-09T04:52:10;100252.00;;;16.30
37536;BMP180;23379;51.554;6.736;2022-09-09T04:54:35;100271.00;;;16.20
37536;BMP180;23379;51.554;6.736;2022-09-09T04:57:01;100256.00;;;16.40
37536;BMP180;23379;51.554;6.736;2022-09-09T04:59:27;100250.00;;;16.70
37536;BMP180;23379;51.554;6.736;2022-09-09T05:01:52;100279.00;;;16.40
37536;BMP180;23379;51.554;6.736;2022-09-09T05:04:20;100223.00;;;16.40
37536;BMP180;23379;51.554;6.736;2022-09-09T05:06:47;100212.00;;;16.50
37536;BMP180;23379;51.554;6.736;2022-09-09T05:09:13;100226.00;;;16.40
37536;BMP180;23379;51.554;6.736;2022-09-09T05:11:38;100253.00;;;16.30
37536;BMP180;23379;51.554;6.736;2022-09-09T05:14:04;100235.00;;;16.30
37536;BMP180;23379;51.554;6.736;2022-09-09T05:16:30;100269.00;;;16.50
37536;BMP180;23379;51.554;6.736;2022-09-09T05:18:55;100264.00;;;16.40
37536;BMP180;23379;51.554;6.736;2022-09-09T05:21:23;100273.00;;;16.20
37536;BMP180;23379;51.554;6.736;2022-09-09T05:23:49;100240.00;;;16.30
37536;BMP180;23379;51.554;6.736;2022-09-09T05:26:18;100265.00;;;16.10
37536;BMP180;23379;51.554;6.736;2022-09-09T05:28:44;100254.00;;;16.40
37536;BMP180;23379;51.554;6.736;2022-09-09T05:31:11;100204.00;;;16.50
37536;BMP180;23379;51.554;6.736;2022-09-09T05:33:38;100237.00;;;16.50
37536;BMP180;23379;51.554;6.736;2022-09-09T05:36:08;100241.00;;;16.50
37536;BMP180;23379;51.554;6.736;2022-09-09T05:38:35;100228.00;;;16.40
37536;BMP180;23379;51.554;6.736;2022-09-09T05:41:02;100253.00;;;16.60
37536;BMP180;23379;51.554;6.736;2022-09-09T05:43:28;100260.00;;;16.50
37536;BMP180;23379;51.554;6.736;2022-09-09T05:46:05;100242.00;;;16.70
37536;BMP180;23379;51.554;6.736;2022-09-09T05:48:32;100213.00;;;16.90
37536;BMP180;23379;51.554;6.736;2022-09-09T05:50:59;100235.00;;;16.60
37536;BMP180;23379;51.554;6.736;2022-09-09T05:53:25;100193.00;;;16.50
37536;BMP180;23379;51.554;6.736;2022-09-09T05:56:05;100198.00;;;16.60
37536;BMP180;23379;51.554;6.736;2022-09-09T05:58:34;100221.00;;;16.60
37536;BMP180;23379;51.554;6.736;2022-09-09T06:01:08;100267.00;;;16.80
37536;BMP180;23379;51.554;6.736;2022-09-09T06:03:35;100238.00;;;16.70
37536;BMP180;23379;51.554;6.736;2022-09-09T06:06:04;100265.00;;;16.80
37536;BMP180;23379;51.554;6.736;2022-09-09T06:08:31;100224.00;;;16.60
37536;BMP180;23379;51.554;6.736;2022-09-09T06:11:09;100234.00;;;16.70
37536;BMP180;23379;51.554;6.736;2022-09-09T06:13:36;100264.00;;;16.90
37536;BMP180;23379;51.554;6.736;2022-09-09T06:16:05;100267.00;;;16.90
37536;BMP180;23379;51.554;6.736;2022-09-09T06:18:32;100262.00;;;16.80
37536;BMP180;23379;51.554;6.736;2022-09-09T06:21:02;100196.00;;;16.80
37536;BMP180;23379;51.554;6.736;2022-09-09T06:23:30;100276.00;;;16.70
37536;BMP180;23379;51.554;6.736;2022-09-09T06:26:05;100273.00;;;17.00
37536;BMP180;23379;51.554;6.736;2022-09-09T06:28:34;100272.00;;;17.00
37536;BMP180;23379;51.554;6.736;2022-09-09T06:31:01;100274.00;;;17.10
37536;BMP180;23379;51.554;6.736;2022-09-09T06:33:31;100286.00;;;16.80
37536;BMP180;23379;51.554;6.736;2022-09-09T06:35:57;100276.00;;;17.30
37536;BMP180;23379;51.554;6.736;2022-09-09T06:38:23;100215.00;;;17.50
37536;BMP180;23379;51.554;6.736;2022-09-09T06:40:57;100263.00;;;17.50
37536;BMP180;23379;51.554;6.736;2022-09-09T06:43:23;100270.00;;;17.20
37536;BMP180;23379;51.554;6.736;2022-09-09T06:46:00;100276.00;;;17.20
37536;BMP180;23379;51.554;6.736;2022-09-09T06:48:26;100289.00;;;17.30
37536;BMP180;23379;51.554;6.736;2022-09-09T06:51:07;100254.00;;;17.30
37536;BMP180;23379;51.554;6.736;2022-09-09T06:53:34;100221.00;;;17.50
37536;BMP180;23379;51.554;6.736;2022-09-09T06:56:01;100240.00;;;17.30
37536;BMP180;23379;51.554;6.736;2022-09-09T06:58:27;100268.00;;;17.50
37536;BMP180;23379;51.554;6.736;2022-09-09T07:01:02;100283.00;;;17.50
37536;BMP180;23379;51.554;6.736;2022-09-09T07:03:27;100258.00;;;17.80
37536;BMP180;23379;51.554;6.736;2022-09-09T07:05:56;100287.00;;;17.80
37536;BMP180;23379;51.554;6.736;2022-09-09T07:08:22;100264.00;;;17.80
37536;BMP180;23379;51.554;6.736;2022-09-09T07:10:48;100276.00;;;18.10
37536;BMP180;23379;51.554;6.736;2022-09-09T07:13:14;100247.00;;;18.10
37536;BMP180;23379;51.554;6.736;2022-09-09T07:15:41;100292.00;;;17.90
37536;BMP180;23379;51.554;6.736;2022-09-09T07:18:06;100287.00;;;18.10
37536;BMP180;23379;51.554;6.736;2022-09-09T07:20:32;100283.00;;;18.10
37536;BMP180;23379;51.554;6.736;2022-09-09T07:22:57;100285.00;;;18.30
37536;BMP180;23379;51.554;6.736;2022-09-09T07:25:24;100288.00;;;18.30
37536;BMP180;23379;51.554;6.736;2022-09-09T07:27:53;100289.00;;;17.90
37536;BMP180;23379;51.554;6.736;2022-09-09T07:30:18;100289.00;;;18.40
37536;BMP180;23379;51.554;6.736;2022-09-09T07:32:44;100296.00;;;18.50
37536;BMP180;23379;51.554;6.736;2022-09-09T07:35:10;100284.00;;;18.50
37536;BMP180;23379;51.554;6.736;2022-09-09T07:37:36;100268.00;;;18.60
37536;BMP180;23379;51.554;6.736;2022-09-09T07:40:02;100301.00;;;18.60
37536;BMP180;23379;51.554;6.736;2022-09-09T07:42:28;100282.00;;;18.40
37536;BMP180;23379;51.554;6.736;2022-09-09T07:44:54;100288.00;;;18.20
37536;BMP180;23379;51.554;6.736;2022-09-09T07:47:20;100310.00;;;18.60
37536;BMP180;23379;51.554;6.736;2022-09-09T07:49:46;100242.00;;;18.50
37536;BMP180;23379;51.554;6.736;2022-09-09T07:52:12;100284.00;;;18.10
37536;BMP180;23379;51.554;6.736;2022-09-09T07:54:37;100253.00;;;18.30
37536;BMP180;23379;51.554;6.736;2022-09-09T07:57:03;100272.00;;;18.70
37536;BMP180;23379;51.554;6.736;2022-09-09T07:59:29;100300.00;;;18.60
37536;BMP180;23379;51.554;6.736;2022-09-09T08:01:55;100275.00;;;18.40
37536;BMP180;23379;51.554;6.736;2022-09-09T08:04:22;100317.00;;;18.70
37536;BMP180;23379;51.554;6.736;2022-09-09T08:06:50;100321.00;;;18.80
37536;BMP180;23379;51.554;6.736;2022-09-09T08:09:18;100320.00;;;18.80
37536;BMP180;23379;51.554;6.736;2022-09-09T08:11:44;100284.00;;;19.20
37536;BMP180;23379;51.554;6.736;2022-09-09T08:14:10;100323.00;;;19.60
37536;BMP180;23379;51.554;6.736;2022-09-09T08:16:42;100321.00;;;19.60
37536;BMP180;23379;51.554;6.736;2022-09-09T08:19:08;100298.00;;;19.90
37536;BMP180;23379;51.554;6.736;2022-09-09T08:21:36;100303.00;;;20.00
37536;BMP180;23379;51.554;6.736;2022-09-09T08:24:02;100322.00;;;20.50
37536;BMP180;23379;51.554;6.736;2022-09-09T08:26:30;100318.00;;;20.60
37536;BMP180;23379;51.554;6.736;2022-09-09T08:28:58;100309.00;;;19.80
37536;BMP180;23379;51.554;6.736;2022-09-09T08:31:25;100306.00;;;20.30
37536;BMP180;23379;51.554;6.736;2022-09-09T08:33:53;100305.00;;;20.10
37536;BMP180;23379;51.554;6.736;2022-09-09T08:36:21;100288.00;;;20.60
37536;BMP180;23379;51.554;6.736;2022-09-09T08:38:51;100299.00;;;22.10
37536;BMP180;23379;51.554;6.736;2022-09-09T08:41:30;100325.00;;;22.50
37536;BMP180;23379;51.554;6.736;2022-09-09T08:52:25;100314.00;;;24.90
37536;BMP180;23379;51.554;6.736;2022-09-09T08:54:53;100307.00;;;23.20
37536;BMP180;23379;51.554;6.736;2022-09-09T08:57:24;100307.00;;;21.80
37536;BMP180;23379;51.554;6.736;2022-09-09T08:59:55;100299.00;;;21.10
37536;BMP180;23379;51.554;6.736;2022-09-09T09:10:34;100321.00;;;19.60
37536;BMP180;23379;51.554;6.736;2022-09-09T09:13:12;100294.00;;;20.20
37536;BMP180;23379;51.554;6.736;2022-09-09T09:15:40;100316.00;;;19.90
37536;BMP180;23379;51.554;6.736;2022-09-09T09:18:10;100346.00;;;20.10
37536;BMP180;23379;51.554;6.736;2022-09-09T09:23:22;100312.00;;;19.30
37536;BMP180;23379;51.554;6.736;2022-09-09T09:25:47;100340.00;;;19.40
37536;BMP180;23379;51.554;6.736;2022-09-09T09:28:25;100289.00;;;19.50
37536;BMP180;23379;51.554;6.736;2022-09-09T09:30:57;100346.00;;;19.70
37536;BMP180;23379;51.554;6.736;2022-09-09T09:36:06;100322.00;;;19.90
37536;BMP180;23379;51.554;6.736;2022-09-09T09:38:34;100336.00;;;19.40
37536;BMP180;23379;51.554;6.736;2022-09-09T09:41:00;100335.00;;;19.20
37536;BMP180;23379;51.554;6.736;2022-09-09T09:43:30;100324.00;;;19.00
37536;BMP180;23379;51.554;6.736;2022-09-09T09:45:56;100364.00;;;19.20
37536;BMP180;23379;51.554;6.736;2022-09-09T09:48:23;100359.00;;;18.90
37536;BMP180;23379;51.554;6.736;2022-09-09T09:55:52;100335.00;;;19.60
37536;BMP180;23379;51.554;6.736;2022-09-09T09:58:18;100348.00;;;19.50
37536;BMP180;23379;51.554;6.736;2022-09-09T10:00:51;100350.00;;;19.50
37536;BMP180;23379;51.554;6.736;2022-09-09T10:03:32;100343.00;;;20.20
37536;BMP180;23379;51.554;6.736;2022-09-09T10:06:02;100343.00;;;22.30
37536;BMP180;23379;51.554;6.736;2022-09-09T10:08:28;100335.00;;;23.10
37536;BMP180;23379;51.554;6.736;2022-09-09T10:11:17;100350.00;;;23.70
37536;BMP180;23379;51.554;6.736;2022-09-09T10:13:53;100354.00;;;25.10
37536;BMP180;23379;51.554;6.736;2022-09-09T10:19:13;100325.00;;;23.60
37536;BMP180;23379;51.554;6.736;2022-09-09T10:25:01;100347.00;;;21.40
37536;BMP180;23379;51.554;6.736;2022-09-09T10:38:30;100338.00;;;20.20
37536;BMP180;23379;51.554;6.736;2022-09-09T10:52:15;100304.00;;;19.90
37536;BMP180;23379;51.554;6.736;2022-09-09T10:54:47;100334.00;;;19.80
37536;BMP180;23379;51.554;6.736;2022-09-09T10:58:09;100340.00;;;19.50
37536;BMP180;23379;51.554;6.736;2022-09-09T11:03:03;100335.00;;;20.00
37536;BMP180;23379;51.554;6.736;2022-09-09T11:05:45;100335.00;;;20.20
37536;BMP180;23379;51.554;6.736;2022-09-09T11:08:18;100332.00;;;20.10
37536;BMP180;23379;51.554;6.736;2022-09-09T11:11:15;100332.00;;;20.60
37536;BMP180;23379;51.554;6.736;2022-09-09T11:16:29;100289.00;;;20.70
37536;BMP180;23379;51.554;6.736;2022-09-09T11:19:09;100325.00;;;20.60
37536;BMP180;23379;51.554;6.736;2022-09-09T11:21:40;100311.00;;;20.70
37536;BMP180;23379;51.554;6.736;2022-09-09T11:24:16;100287.00;;;20.30
37536;BMP180;23379;51.554;6.736;2022-09-09T11:26:51;100324.00;;;20.00
37536;BMP180;23379;51.554;6.736;2022-09-09T11:29:41;100326.00;;;19.90
37536;BMP180;23379;51.554;6.736;2022-09-09T11:42:33;100301.00;;;21.10
37536;BMP180;23379;51.554;6.736;2022-09-09T11:45:18;100316.00;;;21.30
37536;BMP180;23379;51.554;6.736;2022-09-09T11:47:53;100294.00;;;21.30
37536;BMP180;23379;51.554;6.736;2022-09-09T11:52:45;100311.00;;;20.80
37536;BMP180;23379;51.554;6.736;2022-09-09T11:55:29;100305.00;;;20.70
37536;BMP180;23379;51.554;6.736;2022-09-09T11:58:04;100293.00;;;20.40
37536;BMP180;23379;51.554;6.736;2022-09-09T12:03:04;100292.00;;;20.60
37536;BMP180;23379;51.554;6.736;2022-09-09T12:05:39;100302.00;;;20.60
37536;BMP180;23379;51.554;6.736;2022-09-09T12:08:09;100303.00;;;20.50
37536;BMP180;23379;51.554;6.736;2022-09-09T12:10:38;100299.00;;;20.40
37536;BMP180;23379;51.554;6.736;2022-09-09T12:13:20;100309.00;;;20.40
37536;BMP180;23379;51.554;6.736;2022-09-09T12:15:52;100317.00;;;20.70
37536;BMP180;23379;51.554;6.736;2022-09-09T12:18:32;100297.00;;;20.30
37536;BMP180;23379;51.554;6.736;2022-09-09T12:26:47;100325.00;;;20.90
37536;BMP180;23379;51.554;6.736;2022-09-09T12:34:55;100299.00;;;20.80
37536;BMP180;23379;51.554;6.736;2022-09-09T12:40:01;100333.00;;;20.20
37536;BMP180;23379;51.554;6.736;2022-09-09T12:42:28;100331.00;;;20.00
37536;BMP180;23379;51.554;6.736;2022-09-09T12:47:23;100330.00;;;20.20
37536;BMP180;23379;51.554;6.736;2022-09-09T12:49:50;100317.00;;;20.10
37536;BMP180;23379;51.554;6.736;2022-09-09T12:52:26;100325.00;;;19.80
37536;BMP180;23379;51.554;6.736;2022-09-09T12:54:52;100333.00;;;19.40
37536;BMP180;23379;51.554;6.736;2022-09-09T12:57:19;100341.00;;;19.40
37536;BMP180;23379;51.554;6.736;2022-09-09T12:59:47;100348.00;;;19.50
37536;BMP180;23379;51.554;6.736;2022-09-09T13:02:26;100356.00;;;19.70
37536;BMP180;23379;51.554;6.736;2022-09-09T13:04:52;100337.00;;;19.70
37536;BMP180;23379;51.554;6.736;2022-09-09T13:07:20;100350.00;;;19.70
37536;BMP180;23379;51.554;6.736;2022-09-09T13:09:48;100339.00;;;19.70
37536;BMP180;23379;51.554;6.736;2022-09-09T13:12:23;100312.00;;;20.30
37536;BMP180;23379;51.554;6.736;2022-09-09T13:14:51;100335.00;;;20.60
37536;BMP180;23379;51.554;6.736;2022-09-09T13:17:21;100337.00;;;20.70
37536;BMP180;23379;51.554;6.736;2022-09-09T13:19:48;100332.00;;;20.60
37536;BMP180;23379;51.554;6.736;2022-09-09T13:22:27;100316.00;;;20.20
37536;BMP180;23379;51.554;6.736;2022-09-09T13:25:18;100301.00;;;20.10
37536;BMP180;23379;51.554;6.736;2022-09-09T13:28:00;100295.00;;;20.40
37536;BMP180;23379;51.554;6.736;2022-09-09T13:30:33;100308.00;;;20.50
37536;BMP180;23379;51.554;6.736;2022-09-09T13:36:06;100301.00;;;22.10
37536;BMP180;23379;51.554;6.736;2022-09-09T13:38:36;100280.00;;;21.50
37536;BMP180;23379;51.554;6.736;2022-09-09T13:41:07;100278.00;;;21.70
37536;BMP180;23379;51.554;6.736;2022-09-09T13:43:36;100274.00;;;21.30
37536;BMP180;23379;51.554;6.736;2022-09-09T13:46:06;100292.00;;;21.50
37536;BMP180;23379;51.554;6.736;2022-09-09T13:48:57;100302.00;;;21.10
37536;BMP180;23379;51.554;6.736;2022-09-09T13:54:09;100288.00;;;21.50
37536;BMP180;23379;51.554;6.736;2022-09-09T13:56:36;100297.00;;;22.80
37536;BMP180;23379;51.554;6.736;2022-09-09T13:59:04;100295.00;;;22.20
37536;BMP180;23379;51.554;6.736;2022-09-09T14:01:29;100278.00;;;21.00
37536;BMP180;23379;51.554;6.736;2022-09-09T14:04:00;100267.00;;;21.20
37536;BMP180;23379;51.554;6.736;2022-09-09T14:06:25;100261.00;;;20.80
37536;BMP180;23379;51.554;6.736;2022-09-09T14:08:51;100284.00;;;20.70
37536;BMP180;23379;51.554;6.736;2022-09-09T14:11:17;100294.00;;;20.70
37536;BMP180;23379;51.554;6.736;2022-09-09T14:13:43;100275.00;;;20.60
37536;BMP180;23379;51.554;6.736;2022-09-09T14:16:08;100279.00;;;20.40
37536;BMP180;23379;51.554;6.736;2022-09-09T14:18:34;100295.00;;;20.10
37536;BMP180;23379;51.554;6.736;2022-09-09T14:21:00;100266.00;;;20.10
37536;BMP180;23379;51.554;6.736;2022-09-09T14:23:27;100240.00;;;20.00
37536;BMP180;23379;51.554;6.736;2022-09-09T14:25:54;100281.00;;;20.00
37536;BMP180;23379;51.554;6.736;2022-09-09T14:28:20;100222.00;;;19.60
37536;BMP180;23379;51.554;6.736;2022-09-09T14:30:45;100259.00;;;19.70
37536;BMP180;23379;51.554;6.736;2022-09-09T14:33:13;100265.00;;;19.20
37536;BMP180;23379;51.554;6.736;2022-09-09T14:35:39;100258.00;;;18.60
37536;BMP180;23379;51.554;6.736;2022-09-09T14:38:06;100340.00;;;18.00
37536;BMP180;23379;51.554;6.736;2022-09-09T14:40:36;100350.00;;;17.20
37536;BMP180;23379;51.554;6.736;2022-09-09T14:43:03;100343.00;;;16.30
37536;BMP180;23379;51.554;6.736;2022-09-09T14:45:29;100314.00;;;16.10
37536;BMP180;23379;51.554;6.736;2022-09-09T14:47:54;100316.00;;;15.80
37536;BMP180;23379;51.554;6.736;2022-09-09T14:50:21;100325.00;;;15.60
37536;BMP180;23379;51.554;6.736;2022-09-09T14:52:47;100308.00;;;15.60
37536;BMP180;23379;51.554;6.736;2022-09-09T14:55:13;100322.00;;;15.60
37536;BMP180;23379;51.554;6.736;2022-09-09T14:57:39;100335.00;;;15.50
37536;BMP180;23379;51.554;6.736;2022-09-09T15:00:06;100326.00;;;15.80
37536;BMP180;23379;51.554;6.736;2022-09-09T15:02:32;100324.00;;;15.50
37536;BMP180;23379;51.554;6.736;2022-09-09T15:04:58;100315.00;;;15.60
37536;BMP180;23379;51.554;6.736;2022-09-09T15:07:24;100289.00;;;15.80
37536;BMP180;23379;51.554;6.736;2022-09-09T15:09:50;100319.00;;;15.70
37536;BMP180;23379;51.554;6.736;2022-09-09T15:12:15;100269.00;;;15.80
37536;BMP180;23379;51.554;6.736;2022-09-09T15:14:42;100297.00;;;15.80
37536;BMP180;23379;51.554;6.736;2022-09-09T15:17:08;100292.00;;;15.60
37536;BMP180;23379;51.554;6.736;2022-09-09T15:19:33;100238.00;;;15.80
37536;BMP180;23379;51.554;6.736;2022-09-09T15:21:59;100250.00;;;15.70
37536;BMP180;23379;51.554;6.736;2022-09-09T15:24:25;100278.00;;;15.70
37536;BMP180;23379;51.554;6.736;2022-09-09T15:26:51;100275.00;;;16.00
37536;BMP180;23379;51.554;6.736;2022-09-09T15:29:17;100265.00;;;16.10
37536;BMP180;23379;51.554;6.736;2022-09-09T15:31:43;100269.00;;;15.90
37536;BMP180;23379;51.554;6.736;2022-09-09T15:34:08;100264.00;;;16.10
37536;BMP180;23379;51.554;6.736;2022-09-09T15:36:36;100278.00;;;16.20
37536;BMP180;23379;51.554;6.736;2022-09-09T15:39:04;100286.00;;;16.20
37536;BMP180;23379;51.554;6.736;2022-09-09T15:41:30;100288.00;;;16.20
37536;BMP180;23379;51.554;6.736;2022-09-09T15:43:57;100268.00;;;16.70
37536;BMP180;23379;51.554;6.736;2022-09-09T15:46:37;100280.00;;;17.20
37536;BMP180;23379;51.554;6.736;2022-09-09T15:49:06;100257.00;;;17.50
37536;BMP180;23379;51.554;6.736;2022-09-09T15:51:32;100276.00;;;17.50
37536;BMP180;23379;51.554;6.736;2022-09-09T15:53:58;100291.00;;;17.60
37536;BMP180;23379;51.554;6.736;2022-09-09T15:56:25;100259.00;;;17.60
37536;BMP180;23379;51.554;6.736;2022-09-09T15:58:52;100274.00;;;18.20
37536;BMP180;23379;51.554;6.736;2022-09-09T16:01:18;100289.00;;;18.40
37536;BMP180;23379;51.554;6.736;2022-09-09T16:03:45;100278.00;;;18.60
37536;BMP180;23379;51.554;6.736;2022-09-09T16:06:15;100277.00;;;18.50
37536;BMP180;23379;51.554;6.736;2022-09-09T16:08:43;100284.00;;;18.10
37536;BMP180;23379;51.554;6.736;2022-09-09T16:13:36;100299.00;;;18.10
37536;BMP180;23379;51.554;6.736;2022-09-09T16:16:03;100280.00;;;18.00
37536;BMP180;23379;51.554;6.736;2022-09-09T16:18:34;100303.00;;;18.10
37536;BMP180;23379;51.554;6.736;2022-09-09T16:21:00;100284.00;;;18.20
37536;BMP180;23379;51.554;6.736;2022-09-09T16:23:25;100280.00;;;18.20
37536;BMP180;23379;51.554;6.736;2022-09-09T16:25:54;100305.00;;;17.80